sensor_id;sensor_type;location;lat;lon;timestamp;pressure;altitude;pressure_sealevel;temperature;humidity
38033;BME280;23841;48.524;1.342;2023-05-20T00:00:06;99722.09;;;16.29;50.02
38033;BME280;23841;48.524;1.342;2023-05-20T00:02:32;99730.19;;;16.28;50.12
38033;BME280;23841;48.524;1.342;2023-05-20T00:04:58;99723.97;;;16.27;49.96
38033;BME280;23841;48.524;1.342;2023-05-20T00:07:23;99733.88;;;16.25;49.85
38033;BME280;23841;48.524;1.342;2023-05-20T00:09:49;99726.75;;;16.24;50.03
38033;BME280;23841;48.524;1.342;2023-05-20T00:12:14;99721.44;;;16.23;49.95
38033;BME280;23841;48.524;1.342;2023-05-20T00:14:40;99716.22;;;16.19;49.93
38033;BME280;23841;48.524;1.342;2023-05-20T00:17:05;99714.53;;;16.17;50.03
38033;BME280;23841;48.524;1.342;2023-05-20T00:19:31;99718.03;;;16.19;49.95
38033;BME280;23841;48.524;1.342;2023-05-20T00:21:56;99719.88;;;16.17;49.91
38033;BME280;23841;48.524;1.342;2023-05-20T00:24:23;99715.63;;;16.11;49.94
38033;BME280;23841;48.524;1.342;2023-05-20T00:26:48;99720.94;;;16.13;50.06
38033;BME280;23841;48.524;1.342;2023-05-20T00:29:14;99723.72;;;16.10;50.03
38033;BME280;23841;48.524;1.342;2023-05-20T00:31:39;99719.28;;;16.09;50.00
38033;BME280;23841;48.524;1.342;2023-05-20T00:34:05;99721.97;;;16.09;50.12
38033;BME280;23841;48.524;1.342;2023-05-20T00:36:30;99715.88;;;16.05;50.00
38033;BME280;23841;48.524;1.342;2023-05-20T00:38:55;99714.06;;;16.06;49.93
38033;BME280;23841;48.524;1.342;2023-05-20T00:41:21;99707.06;;;16.01;49.95
38033;BME280;23841;48.524;1.342;2023-05-20T00:43:46;99707.06;;;16.01;49.92
38033;BME280;23841;48.524;1.342;2023-05-20T00:46:12;99693.78;;;15.98;49.89
38033;BME280;23841;48.524;1.342;2023-05-20T00:48:42;99697.31;;;15.99;49.95
38033;BME280;23841;48.524;1.342;2023-05-20T00:51:09;99701.94;;;15.95;49.95
38033;BME280;23841;48.524;1.342;2023-05-20T00:53:35;99686.09;;;15.89;49.94
38033;BME280;23841;48.524;1.342;2023-05-20T00:56:02;99687.97;;;15.87;49.91
38033;BME280;23841;48.524;1.342;2023-05-20T00:58:28;99688.69;;;15.91;50.05
38033;BME280;23841;48.524;1.342;2023-05-20T01:00:54;99680.78;;;15.87;49.78
38033;BME280;23841;48.524;1.342;2023-05-20T01:03:19;99682.59;;;15.87;49.88
38033;BME280;23841;48.524;1.342;2023-05-20T01:05:45;99680.06;;;15.84;49.91
38033;BME280;23841;48.524;1.342;2023-05-20T01:08:10;99682.72;;;15.84;49.97
38033;BME280;23841;48.524;1.342;2023-05-20T01:10:38;99679.16;;;15.83;49.96
38033;BME280;23841;48.524;1.342;2023-05-20T01:13:10;99681.97;;;15.80;50.03
38033;BME280;23841;48.524;1.342;2023-05-20T01:15:40;99668.59;;;15.79;49.89
38033;BME280;23841;48.524;1.342;2023-05-20T01:18:07;99668.72;;;15.76;49.98
38033;BME280;23841;48.524;1.342;2023-05-20T01:20:35;99665.25;;;15.72;50.07
38033;BME280;23841;48.524;1.342;2023-05-20T01:23:01;99663.50;;;15.71;49.90
38033;BME280;23841;48.524;1.342;2023-05-20T01:25:27;99665.31;;;15.70;49.94
38033;BME280;23841;48.524;1.342;2023-05-20T01:27:55;99660.03;;;15.69;50.04
38033;BME280;23841;48.524;1.342;2023-05-20T01:30:23;99658.31;;;15.66;49.87
38033;BME280;23841;48.524;1.342;2023-05-20T01:33:06;99654.78;;;15.66;49.92
38033;BME280;23841;48.524;1.342;2023-05-20T01:35:33;99647.75;;;15.63;49.82
38033;BME280;23841;48.524;1.342;2023-05-20T01:38:02;99651.34;;;15.62;49.82
38033;BME280;23841;48.524;1.342;2023-05-20T01:40:28;99641.66;;;15.58;49.89
38033;BME280;23841;48.524;1.342;2023-05-20T01:42:55;99643.59;;;15.55;49.77
38033;BME280;23841;48.524;1.342;2023-05-20T01:45:23;99637.34;;;15.54;49.85
38033;BME280;23841;48.524;1.342;2023-05-20T01:47:49;99644.59;;;15.52;50.08
38033;BME280;23841;48.524;1.342;2023-05-20T01:50:14;99634.78;;;15.51;50.12
38033;BME280;23841;48.524;1.342;2023-05-20T01:52:40;99638.34;;;15.51;50.05
38033;BME280;23841;48.524;1.342;2023-05-20T01:55:05;99628.72;;;15.46;49.91
38033;BME280;23841;48.524;1.342;2023-05-20T01:57:31;99635.78;;;15.48;50.06
38033;BME280;23841;48.524;1.342;2023-05-20T01:59:56;99639.44;;;15.46;49.92
38033;BME280;23841;48.524;1.342;2023-05-20T02:02:22;99637.69;;;15.45;49.80
38033;BME280;23841;48.524;1.342;2023-05-20T02:04:49;99638.63;;;15.44;50.05
38033;BME280;23841;48.524;1.342;2023-05-20T02:07:16;99627.22;;;15.39;49.99
38033;BME280;23841;48.524;1.342;2023-05-20T02:09:43;99630.75;;;15.39;50.04
38033;BME280;23841;48.524;1.342;2023-05-20T02:12:08;99629.03;;;15.38;49.82
38033;BME280;23841;48.524;1.342;2023-05-20T02:14:40;99629.09;;;15.36;49.94
38033;BME280;23841;48.524;1.342;2023-05-20T02:17:05;99622.09;;;15.32;50.09
38033;BME280;23841;48.524;1.342;2023-05-20T02:19:31;99618.59;;;15.30;50.04
38033;BME280;23841;48.524;1.342;2023-05-20T02:21:56;99627.53;;;15.29;49.84
38033;BME280;23841;48.524;1.342;2023-05-20T02:24:21;99624.91;;;15.28;49.81
38033;BME280;23841;48.524;1.342;2023-05-20T02:26:47;99627.75;;;15.23;49.75
38033;BME280;23841;48.524;1.342;2023-05-20T02:29:15;99625.94;;;15.24;49.88
38033;BME280;23841;48.524;1.342;2023-05-20T02:31:41;99620.66;;;15.22;49.75
38033;BME280;23841;48.524;1.342;2023-05-20T02:34:06;99622.53;;;15.20;49.85
38033;BME280;23841;48.524;1.342;2023-05-20T02:36:32;99622.63;;;15.17;49.87
38033;BME280;23841;48.524;1.342;2023-05-20T02:38:57;99611.22;;;15.12;49.82
38033;BME280;23841;48.524;1.342;2023-05-20T02:41:23;99617.38;;;15.14;50.00
38033;BME280;23841;48.524;1.342;2023-05-20T02:43:48;99617.38;;;15.14;49.76
38033;BME280;23841;48.524;1.342;2023-05-20T02:46:13;99614.81;;;15.11;49.92
38033;BME280;23841;48.524;1.342;2023-05-20T02:48:40;99614.88;;;15.09;49.91
38033;BME280;23841;48.524;1.342;2023-05-20T02:51:05;99610.50;;;15.07;50.01
38033;BME280;23841;48.524;1.342;2023-05-20T02:53:31;99607.88;;;15.05;49.95
38033;BME280;23841;48.524;1.342;2023-05-20T02:55:56;99601.75;;;15.01;49.78
38033;BME280;23841;48.524;1.342;2023-05-20T02:58:22;99601.75;;;15.01;49.77
38033;BME280;23841;48.524;1.342;2023-05-20T03:00:53;99600.03;;;15.00;49.82
38033;BME280;23841;48.524;1.342;2023-05-20T03:03:19;99608.97;;;14.99;49.66
38033;BME280;23841;48.524;1.342;2023-05-20T03:05:44;99610.81;;;14.97;49.94
38033;BME280;23841;48.524;1.342;2023-05-20T03:08:10;99589.75;;;14.88;49.77
38033;BME280;23841;48.524;1.342;2023-05-20T03:10:39;99595.00;;;14.91;49.83
38033;BME280;23841;48.524;1.342;2023-05-20T03:13:05;99596.88;;;14.89;49.96
38033;BME280;23841;48.524;1.342;2023-05-20T03:15:36;99589.88;;;14.85;49.88
38033;BME280;23841;48.524;1.342;2023-05-20T03:18:01;99589.88;;;14.85;49.68
38033;BME280;23841;48.524;1.342;2023-05-20T03:20:27;99584.53;;;14.85;49.70
38033;BME280;23841;48.524;1.342;2023-05-20T03:22:57;99597.06;;;14.83;49.87
38033;BME280;23841;48.524;1.342;2023-05-20T03:25:23;99597.97;;;14.82;49.90
38033;BME280;23841;48.524;1.342;2023-05-20T03:27:48;99589.31;;;14.75;49.87
38033;BME280;23841;48.524;1.342;2023-05-20T03:30:14;99588.31;;;14.78;49.89
38033;BME280;23841;48.524;1.342;2023-05-20T03:32:39;99584.88;;;14.74;50.09
38033;BME280;23841;48.524;1.342;2023-05-20T03:35:05;99592.00;;;14.74;49.97
38033;BME280;23841;48.524;1.342;2023-05-20T03:37:31;99584.09;;;14.71;50.07
38033;BME280;23841;48.524;1.342;2023-05-20T03:39:56;99579.66;;;14.70;50.14
38033;BME280;23841;48.524;1.342;2023-05-20T03:42:22;99577.94;;;14.68;49.84
38033;BME280;23841;48.524;1.342;2023-05-20T03:44:47;99583.38;;;14.65;50.15
38033;BME280;23841;48.524;1.342;2023-05-20T03:47:12;99581.72;;;14.63;50.00
38033;BME280;23841;48.524;1.342;2023-05-20T03:49:38;99581.72;;;14.61;49.94
38033;BME280;23841;48.524;1.342;2023-05-20T03:52:05;99571.13;;;14.58;49.98
38033;BME280;23841;48.524;1.342;2023-05-20T03:54:31;99573.72;;;14.61;49.84
38033;BME280;23841;48.524;1.342;2023-05-20T03:56:56;99570.25;;;14.58;49.97
38033;BME280;23841;48.524;1.342;2023-05-20T03:59:22;99568.56;;;14.55;50.05
38033;BME280;23841;48.524;1.342;2023-05-20T04:01:47;99569.56;;;14.51;50.12
38033;BME280;23841;48.524;1.342;2023-05-20T04:04:13;99575.75;;;14.53;50.27
38033;BME280;23841;48.524;1.342;2023-05-20T04:06:38;99569.63;;;14.49;50.24
38033;BME280;23841;48.524;1.342;2023-05-20T04:09:04;99571.44;;;14.49;50.33
38033;BME280;23841;48.524;1.342;2023-05-20T04:11:30;99569.75;;;14.46;50.20
38033;BME280;23841;48.524;1.342;2023-05-20T04:13:56;99568.91;;;14.44;50.15
38033;BME280;23841;48.524;1.342;2023-05-20T04:16:22;99565.38;;;14.44;50.36
38033;BME280;23841;48.524;1.342;2023-05-20T04:18:48;99572.53;;;14.43;50.33
38033;BME280;23841;48.524;1.342;2023-05-20T04:21:13;99576.16;;;14.41;50.33
38033;BME280;23841;48.524;1.342;2023-05-20T04:23:39;99571.84;;;14.37;50.25
38033;BME280;23841;48.524;1.342;2023-05-20T04:26:04;99563.84;;;14.37;50.15
38033;BME280;23841;48.524;1.342;2023-05-20T04:28:30;99573.69;;;14.34;50.22
38033;BME280;23841;48.524;1.342;2023-05-20T04:31:00;99569.28;;;14.33;50.49
38033;BME280;23841;48.524;1.342;2023-05-20T04:33:28;99557.75;;;14.31;50.53
38033;BME280;23841;48.524;1.342;2023-05-20T04:35:54;99562.25;;;14.31;50.41
38033;BME280;23841;48.524;1.342;2023-05-20T04:38:25;99567.63;;;14.29;50.47
38033;BME280;23841;48.524;1.342;2023-05-20T04:41:03;99565.94;;;14.27;50.46
38033;BME280;23841;48.524;1.342;2023-05-20T04:43:29;99560.69;;;14.24;50.67
38033;BME280;23841;48.524;1.342;2023-05-20T04:45:55;99561.56;;;14.24;50.67
38033;BME280;23841;48.524;1.342;2023-05-20T04:48:21;99562.47;;;14.23;50.64
38033;BME280;23841;48.524;1.342;2023-05-20T04:50:50;99566.13;;;14.21;50.67
38033;BME280;23841;48.524;1.342;2023-05-20T04:53:16;99553.78;;;14.16;50.71
38033;BME280;23841;48.524;1.342;2023-05-20T04:55:43;99558.22;;;14.17;50.80
38033;BME280;23841;48.524;1.342;2023-05-20T04:58:09;99556.44;;;14.16;50.80
38033;BME280;23841;48.524;1.342;2023-05-20T05:00:43;99556.50;;;14.15;50.96
38033;BME280;23841;48.524;1.342;2023-05-20T05:03:09;99552.13;;;14.12;50.99
38033;BME280;23841;48.524;1.342;2023-05-20T05:05:37;99551.28;;;14.12;51.16
38033;BME280;23841;48.524;1.342;2023-05-20T05:08:04;99553.16;;;14.08;51.12
38033;BME280;23841;48.524;1.342;2023-05-20T05:10:30;99542.72;;;14.00;51.13
38033;BME280;23841;48.524;1.342;2023-05-20T05:12:55;99557.69;;;14.06;51.20
38033;BME280;23841;48.524;1.342;2023-05-20T05:15:21;99558.66;;;14.04;51.40
38033;BME280;23841;48.524;1.342;2023-05-20T05:17:46;99562.34;;;13.99;51.19
38033;BME280;23841;48.524;1.342;2023-05-20T05:20:11;99563.19;;;14.00;51.45
38033;BME280;23841;48.524;1.342;2023-05-20T05:22:37;99558.84;;;13.97;51.31
38033;BME280;23841;48.524;1.342;2023-05-20T05:25:05;99559.78;;;13.96;51.54
38033;BME280;23841;48.524;1.342;2023-05-20T05:27:31;99558.00;;;13.95;51.68
38033;BME280;23841;48.524;1.342;2023-05-20T05:29:56;99557.22;;;13.93;51.66
38033;BME280;23841;48.524;1.342;2023-05-20T05:32:22;99557.25;;;13.92;51.61
38033;BME280;23841;48.524;1.342;2023-05-20T05:34:47;99569.72;;;13.91;51.91
38033;BME280;23841;48.524;1.342;2023-05-20T05:37:12;99561.81;;;13.88;52.09
38033;BME280;23841;48.524;1.342;2023-05-20T05:39:38;99554.72;;;13.87;52.16
38033;BME280;23841;48.524;1.342;2023-05-20T05:42:03;99557.38;;;13.87;52.21
38033;BME280;23841;48.524;1.342;2023-05-20T05:44:30;99562.72;;;13.87;52.41
38033;BME280;23841;48.524;1.342;2023-05-20T05:46:55;99555.72;;;13.83;52.51
38033;BME280;23841;48.524;1.342;2023-05-20T05:49:20;99555.72;;;13.83;52.78
38033;BME280;23841;48.524;1.342;2023-05-20T05:51:46;99551.34;;;13.82;52.35
38033;BME280;23841;48.524;1.342;2023-05-20T05:54:11;99559.34;;;13.82;52.87
38033;BME280;23841;48.524;1.342;2023-05-20T05:56:37;99554.00;;;13.82;52.84
38033;BME280;23841;48.524;1.342;2023-05-20T05:59:03;99559.41;;;13.79;53.01
38033;BME280;23841;48.524;1.342;2023-05-20T06:01:29;99559.41;;;13.79;53.05
38033;BME280;23841;48.524;1.342;2023-05-20T06:03:54;99558.50;;;13.80;53.16
38033;BME280;23841;48.524;1.342;2023-05-20T06:06:19;99554.13;;;13.77;53.30
38033;BME280;23841;48.524;1.342;2023-05-20T06:08:45;99551.50;;;13.76;53.46
38033;BME280;23841;48.524;1.342;2023-05-20T06:11:10;99551.50;;;13.76;53.59
38033;BME280;23841;48.524;1.342;2023-05-20T06:13:35;99541.72;;;13.75;53.66
38033;BME280;23841;48.524;1.342;2023-05-20T06:16:01;99542.69;;;13.74;53.69
38033;BME280;23841;48.524;1.342;2023-05-20T06:18:26;99548.94;;;13.73;53.95
38033;BME280;23841;48.524;1.342;2023-05-20T06:20:58;99539.22;;;13.70;54.04
38033;BME280;23841;48.524;1.342;2023-05-20T06:23:24;99529.50;;;13.68;54.30
38033;BME280;23841;48.524;1.342;2023-05-20T06:25:50;99540.09;;;13.71;54.37
38033;BME280;23841;48.524;1.342;2023-05-20T06:28:17;99538.34;;;13.70;54.85
38033;BME280;23841;48.524;1.342;2023-05-20T06:30:43;99531.25;;;13.69;54.77
38033;BME280;23841;48.524;1.342;2023-05-20T06:33:08;99535.75;;;13.68;55.00
38033;BME280;23841;48.524;1.342;2023-05-20T06:35:34;99521.66;;;13.63;55.29
38033;BME280;23841;48.524;1.342;2023-05-20T06:38:00;99530.41;;;13.66;55.13
38033;BME280;23841;48.524;1.342;2023-05-20T06:40:26;99528.75;;;13.64;55.29
38033;BME280;23841;48.524;1.342;2023-05-20T06:42:52;99534.94;;;13.64;55.23
38033;BME280;23841;48.524;1.342;2023-05-20T06:45:18;99526.06;;;13.64;55.72
38033;BME280;23841;48.524;1.342;2023-05-20T06:47:43;99531.44;;;13.62;55.74
38033;BME280;23841;48.524;1.342;2023-05-20T06:50:09;99524.38;;;13.61;56.09
38033;BME280;23841;48.524;1.342;2023-05-20T06:52:35;99522.56;;;13.62;56.13
38033;BME280;23841;48.524;1.342;2023-05-20T06:55:01;99519.94;;;13.60;56.51
38033;BME280;23841;48.524;1.342;2023-05-20T06:57:26;99518.13;;;13.61;56.65
38033;BME280;23841;48.524;1.342;2023-05-20T06:59:52;99511.94;;;13.60;57.11
38033;BME280;23841;48.524;1.342;2023-05-20T07:02:17;99519.09;;;13.60;56.89
38033;BME280;23841;48.524;1.342;2023-05-20T07:04:43;99511.09;;;13.58;57.22
38033;BME280;23841;48.524;1.342;2023-05-20T07:07:08;99510.19;;;13.59;57.61
38033;BME280;23841;48.524;1.342;2023-05-20T07:09:33;99508.34;;;13.61;57.77
38033;BME280;23841;48.524;1.342;2023-05-20T07:12:00;99509.25;;;13.60;58.01
38033;BME280;23841;48.524;1.342;2023-05-20T07:14:26;99519.88;;;13.62;58.08
38033;BME280;23841;48.524;1.342;2023-05-20T07:16:51;99520.84;;;13.59;58.73
38033;BME280;23841;48.524;1.342;2023-05-20T07:19:16;99518.22;;;13.58;58.84
38033;BME280;23841;48.524;1.342;2023-05-20T07:21:42;99517.38;;;13.57;59.25
38033;BME280;23841;48.524;1.342;2023-05-20T07:24:07;99517.31;;;13.59;59.21
38033;BME280;23841;48.524;1.342;2023-05-20T07:26:33;99528.84;;;13.59;59.06
38033;BME280;23841;48.524;1.342;2023-05-20T07:29:03;99527.09;;;13.60;59.30
38033;BME280;23841;48.524;1.342;2023-05-20T07:31:29;99519.03;;;13.61;59.40
38033;BME280;23841;48.524;1.342;2023-05-20T07:33:55;99522.56;;;13.62;59.58
38033;BME280;23841;48.524;1.342;2023-05-20T07:36:20;99527.03;;;13.61;59.75
38033;BME280;23841;48.524;1.342;2023-05-20T07:38:46;99519.03;;;13.61;59.96
38033;BME280;23841;48.524;1.342;2023-05-20T07:41:11;99519.03;;;13.61;59.95
38033;BME280;23841;48.524;1.342;2023-05-20T07:43:37;99519.88;;;13.62;60.23
38033;BME280;23841;48.524;1.342;2023-05-20T07:46:02;99509.31;;;13.59;60.37
38033;BME280;23841;48.524;1.342;2023-05-20T07:48:28;99515.34;;;13.65;60.53
38033;BME280;23841;48.524;1.342;2023-05-20T07:50:53;99507.34;;;13.65;61.14
38033;BME280;23841;48.524;1.342;2023-05-20T07:53:23;99499.41;;;13.62;61.06
38033;BME280;23841;48.524;1.342;2023-05-20T07:55:48;99495.72;;;13.66;61.45
38033;BME280;23841;48.524;1.342;2023-05-20T07:58:14;99509.03;;;13.68;61.52
38033;BME280;23841;48.524;1.342;2023-05-20T08:00:39;99501.06;;;13.66;61.37
38033;BME280;23841;48.524;1.342;2023-05-20T08:03:05;99507.28;;;13.67;61.31
38033;BME280;23841;48.524;1.342;2023-05-20T08:05:32;99506.38;;;13.68;61.19
38033;BME280;23841;48.524;1.342;2023-05-20T08:07:57;99509.00;;;13.70;61.24
38033;BME280;23841;48.524;1.342;2023-05-20T08:10:22;99508.03;;;13.71;61.53
38033;BME280;23841;48.524;1.342;2023-05-20T08:12:48;99511.56;;;13.73;61.72
38033;BME280;23841;48.524;1.342;2023-05-20T08:15:13;99500.97;;;13.70;61.53
38033;BME280;23841;48.524;1.342;2023-05-20T08:17:39;99497.28;;;13.74;61.62
38033;BME280;23841;48.524;1.342;2023-05-20T08:20:05;99500.78;;;13.76;61.48
38033;BME280;23841;48.524;1.342;2023-05-20T08:22:32;99492.59;;;13.80;62.00
38033;BME280;23841;48.524;1.342;2023-05-20T08:24:57;99504.19;;;13.81;62.29
38033;BME280;23841;48.524;1.342;2023-05-20T08:27:23;99497.03;;;13.81;62.57
38033;BME280;23841;48.524;1.342;2023-05-20T08:29:49;99504.94;;;13.85;62.36
38033;BME280;23841;48.524;1.342;2023-05-20T08:32:14;99499.53;;;13.88;62.39
38033;BME280;23841;48.524;1.342;2023-05-20T08:34:39;99494.84;;;13.94;62.04
38033;BME280;23841;48.524;1.342;2023-05-20T08:37:06;99495.72;;;13.95;62.31
38033;BME280;23841;48.524;1.342;2023-05-20T08:39:32;99500.28;;;13.91;62.44
38033;BME280;23841;48.524;1.342;2023-05-20T08:41:57;99502.88;;;14.21;61.78
38033;BME280;23841;48.524;1.342;2023-05-20T08:44:24;99500.84;;;14.28;61.67
38033;BME280;23841;48.524;1.342;2023-05-20T08:46:50;99494.19;;;14.41;61.27
38033;BME280;23841;48.524;1.342;2023-05-20T08:49:16;99492.28;;;14.18;61.53
38033;BME280;23841;48.524;1.342;2023-05-20T08:51:42;99491.22;;;14.24;62.04
38033;BME280;23841;48.524;1.342;2023-05-20T08:54:08;99495.91;;;14.17;61.19
38033;BME280;23841;48.524;1.342;2023-05-20T08:56:36;99487.66;;;14.23;61.03
38033;BME280;23841;48.524;1.342;2023-05-20T08:59:03;99481.09;;;14.33;61.56
38033;BME280;23841;48.524;1.342;2023-05-20T09:01:30;99478.16;;;14.41;61.53
38033;BME280;23841;48.524;1.342;2023-05-20T09:03:56;99468.28;;;14.43;61.48
38033;BME280;23841;48.524;1.342;2023-05-20T09:06:22;99482.81;;;14.34;61.53
38033;BME280;23841;48.524;1.342;2023-05-20T09:08:48;99475.84;;;14.30;62.04
38033;BME280;23841;48.524;1.342;2023-05-20T09:11:15;99482.63;;;14.41;62.12
38033;BME280;23841;48.524;1.342;2023-05-20T09:13:40;99478.56;;;14.29;61.87
38033;BME280;23841;48.524;1.342;2023-05-20T09:16:06;99475.19;;;14.24;62.86
38033;BME280;23841;48.524;1.342;2023-05-20T09:18:37;99469.06;;;14.20;62.94
38033;BME280;23841;48.524;1.342;2023-05-20T09:21:04;99471.69;;;14.22;63.00
38033;BME280;23841;48.524;1.342;2023-05-20T09:23:32;99464.50;;;14.24;63.41
38033;BME280;23841;48.524;1.342;2023-05-20T09:25:59;99461.88;;;14.22;63.82
38033;BME280;23841;48.524;1.342;2023-05-20T09:28:25;99467.13;;;14.25;63.98
38033;BME280;23841;48.524;1.342;2023-05-20T09:30:58;99460.88;;;14.25;64.06
38033;BME280;23841;48.524;1.342;2023-05-20T09:33:33;99466.19;;;14.26;65.22
38033;BME280;23841;48.524;1.342;2023-05-20T09:36:09;99465.97;;;14.32;64.79
38033;BME280;23841;48.524;1.342;2023-05-20T09:38:36;99447.16;;;14.36;64.29
38033;BME280;23841;48.524;1.342;2023-05-20T09:41:10;99446.25;;;14.37;65.02
38033;BME280;23841;48.524;1.342;2023-05-20T09:43:38;99449.59;;;14.42;64.81
38033;BME280;23841;48.524;1.342;2023-05-20T09:46:04;99452.19;;;14.45;64.66
38033;BME280;23841;48.524;1.342;2023-05-20T09:48:31;99452.19;;;14.45;64.92
38033;BME280;23841;48.524;1.342;2023-05-20T09:50:57;99442.38;;;14.45;65.05
38033;BME280;23841;48.524;1.342;2023-05-20T09:53:25;99451.06;;;14.52;65.15
38033;BME280;23841;48.524;1.342;2023-05-20T09:55:53;99444.97;;;14.47;65.12
38033;BME280;23841;48.524;1.342;2023-05-20T09:58:19;99447.47;;;14.53;65.20
38033;BME280;23841;48.524;1.342;2023-05-20T10:00:45;99433.25;;;14.51;65.26
38033;BME280;23841;48.524;1.342;2023-05-20T10:03:11;99436.84;;;14.50;65.20
38033;BME280;23841;48.524;1.342;2023-05-20T10:05:44;99426.16;;;14.50;65.39
38033;BME280;23841;48.524;1.342;2023-05-20T10:16:08;99429.34;;;14.61;65.00
38033;BME280;23841;48.524;1.342;2023-05-20T10:21:27;99422.19;;;14.62;64.89
38033;BME280;23841;48.524;1.342;2023-05-20T10:23:53;99445.25;;;14.66;65.04
38033;BME280;23841;48.524;1.342;2023-05-20T10:26:19;99431.03;;;14.64;64.90
38033;BME280;23841;48.524;1.342;2023-05-20T10:28:46;99424.00;;;14.61;64.58
38033;BME280;23841;48.524;1.342;2023-05-20T10:31:22;99426.66;;;14.61;64.64
38033;BME280;23841;48.524;1.342;2023-05-20T10:33:51;99426.22;;;14.74;65.05
38033;BME280;23841;48.524;1.342;2023-05-20T10:36:25;99426.13;;;14.77;65.20
38033;BME280;23841;48.524;1.342;2023-05-20T10:38:54;99422.50;;;14.78;65.46
38033;BME280;23841;48.524;1.342;2023-05-20T10:41:24;99421.41;;;14.83;65.57
38033;BME280;23841;48.524;1.342;2023-05-20T10:44:04;99419.75;;;14.81;65.80
38033;BME280;23841;48.524;1.342;2023-05-20T10:46:30;99416.19;;;14.80;66.10
38033;BME280;23841;48.524;1.342;2023-05-20T10:48:56;99422.31;;;14.84;65.98
38033;BME280;23841;48.524;1.342;2023-05-20T10:51:23;99424.66;;;14.92;65.74
38033;BME280;23841;48.524;1.342;2023-05-20T10:53:51;99417.41;;;14.95;66.09
38033;BME280;23841;48.524;1.342;2023-05-20T10:56:19;99417.53;;;14.92;65.88
38033;BME280;23841;48.524;1.342;2023-05-20T10:58:45;99409.50;;;14.92;65.89
38033;BME280;23841;48.524;1.342;2023-05-20T11:01:12;99403.97;;;14.97;66.05
38033;BME280;23841;48.524;1.342;2023-05-20T11:03:40;99408.59;;;15.15;65.72
38033;BME280;23841;48.524;1.342;2023-05-20T11:06:16;99387.94;;;14.97;65.84
38033;BME280;23841;48.524;1.342;2023-05-20T11:08:42;99402.59;;;15.10;65.52
38033;BME280;23841;48.524;1.342;2023-05-20T11:11:13;99410.72;;;15.07;65.88
38033;BME280;23841;48.524;1.342;2023-05-20T11:13:39;99413.16;;;15.13;65.71
38033;BME280;23841;48.524;1.342;2023-05-20T11:16:04;99409.03;;;15.28;65.00
38033;BME280;23841;48.524;1.342;2023-05-20T11:18:30;99408.44;;;15.20;65.18
38033;BME280;23841;48.524;1.342;2023-05-20T11:21:00;99401.22;;;15.22;65.07
38033;BME280;23841;48.524;1.342;2023-05-20T11:23:27;99403.69;;;15.28;65.13
38033;BME280;23841;48.524;1.342;2023-05-20T11:25:54;99402.91;;;15.25;65.11
38033;BME280;23841;48.524;1.342;2023-05-20T11:28:20;99386.91;;;15.23;65.03
38033;BME280;23841;48.524;1.342;2023-05-20T11:30:47;99390.38;;;15.25;64.86
38033;BME280;23841;48.524;1.342;2023-05-20T11:33:14;99383.19;;;15.27;64.78
38033;BME280;23841;48.524;1.342;2023-05-20T11:35:47;99384.81;;;15.31;64.47
38033;BME280;23841;48.524;1.342;2023-05-20T11:38:13;99395.66;;;15.28;64.33
38033;BME280;23841;48.524;1.342;2023-05-20T11:40:53;99397.44;;;15.28;64.12
38033;BME280;23841;48.524;1.342;2023-05-20T11:43:19;99393.75;;;15.30;64.29
38033;BME280;23841;48.524;1.342;2023-05-20T11:45:47;99398.19;;;15.31;64.09
38033;BME280;23841;48.524;1.342;2023-05-20T11:48:12;99400.75;;;15.34;64.05
38033;BME280;23841;48.524;1.342;2023-05-20T11:50:44;99396.22;;;15.36;64.11
38033;BME280;23841;48.524;1.342;2023-05-20T11:53:14;99396.09;;;15.40;64.01
38033;BME280;23841;48.524;1.342;2023-05-20T11:55:50;99387.22;;;15.38;63.74
38033;BME280;23841;48.524;1.342;2023-05-20T11:58:24;99396.66;;;15.48;63.75
38033;BME280;23841;48.524;1.342;2023-05-20T12:00:50;99384.25;;;15.45;63.71
38033;BME280;23841;48.524;1.342;2023-05-20T12:03:16;99391.41;;;15.45;63.75
38033;BME280;23841;48.524;1.342;2023-05-20T12:05:41;99386.94;;;15.45;63.56
38033;BME280;23841;48.524;1.342;2023-05-20T12:08:07;99375.31;;;15.46;63.50
38033;BME280;23841;48.524;1.342;2023-05-20T12:10:32;99380.25;;;15.56;63.21
38033;BME280;23841;48.524;1.342;2023-05-20T12:12:58;99377.78;;;15.51;63.36
38033;BME280;23841;48.524;1.342;2023-05-20T12:15:24;99370.50;;;15.55;63.17
38033;BME280;23841;48.524;1.342;2023-05-20T12:17:51;99370.44;;;15.56;63.23
38033;BME280;23841;48.524;1.342;2023-05-20T12:20:20;99365.88;;;15.58;63.33
38033;BME280;23841;48.524;1.342;2023-05-20T12:22:46;99364.03;;;15.60;63.08
38033;BME280;23841;48.524;1.342;2023-05-20T12:25:12;99359.47;;;15.62;63.22
38033;BME280;23841;48.524;1.342;2023-05-20T12:27:40;99348.63;;;15.65;63.09
38033;BME280;23841;48.524;1.342;2023-05-20T12:30:06;99352.91;;;15.69;62.76
38033;BME280;23841;48.524;1.342;2023-05-20T12:32:33;99345.78;;;15.70;63.11
38033;BME280;23841;48.524;1.342;2023-05-20T12:34:59;99336.72;;;15.73;63.11
38033;BME280;23841;48.524;1.342;2023-05-20T12:37:24;99339.97;;;15.81;62.83
38033;BME280;23841;48.524;1.342;2023-05-20T12:39:50;99343.34;;;15.86;62.48
38033;BME280;23841;48.524;1.342;2023-05-20T12:42:15;99342.41;;;15.87;62.40
38033;BME280;23841;48.524;1.342;2023-05-20T12:44:41;99337.72;;;15.92;62.17
38033;BME280;23841;48.524;1.342;2023-05-20T12:47:07;99343.09;;;15.92;62.05
38033;BME280;23841;48.524;1.342;2023-05-20T12:49:33;99332.22;;;15.95;62.13
38033;BME280;23841;48.524;1.342;2023-05-20T12:51:58;99335.69;;;15.97;62.15
38033;BME280;23841;48.524;1.342;2023-05-20T12:54:24;99335.31;;;16.07;61.97
38033;BME280;23841;48.524;1.342;2023-05-20T12:56:52;99335.44;;;16.03;61.83
38033;BME280;23841;48.524;1.342;2023-05-20T12:59:18;99333.09;;;16.16;61.51
38033;BME280;23841;48.524;1.342;2023-05-20T13:01:43;99333.84;;;16.20;61.17
38033;BME280;23841;48.524;1.342;2023-05-20T13:04:09;99334.47;;;16.25;60.88
38033;BME280;23841;48.524;1.342;2023-05-20T13:06:35;99332.72;;;16.24;60.92